Time;durP1;ratioP1;P1;durP2;ratioP2;P2;SDS_P1;SDS_P2;PMS_P1;PMS_P2;Temp;Humidity;BMP_temperature;BMP_pressure;BME280_temperature;BME280_humidity;BME280_pressure;Samples;Min_cycle;Max_cycle;Signal;HPM_P1;HPM_P2
2023/07/18 00:00:53;;;;;;;11.38;6.57;;;13.10;99.90;;;;;;7373363;19;20366;-58
2023/07/18 00:03:19;;;;;;;12.95;6.25;;;13.10;99.90;;;;;;7369069;19;20094;-58
2023/07/18 00:05:46;;;;;;;10.73;6.75;;;13.10;99.90;;;;;;7373202;19;20023;-59
2023/07/18 00:08:13;;;;;;;12.98;6.47;;;13.00;99.90;;;;;;7371798;19;20101;-58
2023/07/18 00:10:39;;;;;;;9.43;6.18;;;13.00;99.90;;;;;;7374173;19;20093;-58
2023/07/18 00:13:06;;;;;;;11.88;6.30;;;13.00;99.90;;;;;;7372719;19;20026;-58
2023/07/18 00:15:32;;;;;;;10.38;6.72;;;12.90;99.90;;;;;;7373387;19;20018;-58
2023/07/18 00:18:01;;;;;;;10.95;7.13;;;12.90;99.90;;;;;;7375883;19;20466;-58
2023/07/18 00:20:29;;;;;;;13.77;6.65;;;12.90;99.90;;;;;;7371336;19;20427;-58
2023/07/18 00:22:55;;;;;;;11.90;6.20;;;12.90;99.90;;;;;;7370083;19;20029;-58
2023/07/18 00:25:22;;;;;;;13.73;6.55;;;12.80;99.90;;;;;;7369604;19;20083;-58
2023/07/18 00:27:49;;;;;;;13.65;6.88;;;12.90;99.90;;;;;;7373555;19;20022;-58
2023/07/18 00:30:17;;;;;;;12.43;6.53;;;12.80;99.90;;;;;;7370799;19;20099;-58
2023/07/18 00:32:44;;;;;;;14.80;7.03;;;12.80;99.90;;;;;;7369736;19;20018;-58
2023/07/18 00:35:13;;;;;;;10.82;6.88;;;12.80;99.90;;;;;;7372197;19;20044;-58
2023/07/18 00:37:40;;;;;;;15.18;7.15;;;12.80;99.90;;;;;;7372227;19;20094;-58
2023/07/18 00:40:11;;;;;;;10.57;6.45;;;12.80;99.90;;;;;;7377528;19;20022;-58
2023/07/18 00:42:43;;;;;;;10.93;6.80;;;12.80;99.90;;;;;;7374325;19;20101;-58
2023/07/18 00:45:10;;;;;;;12.75;6.15;;;12.90;99.90;;;;;;7369458;19;20378;-58
2023/07/18 00:47:41;;;;;;;12.07;6.20;;;12.80;99.90;;;;;;7373856;19;20098;-61
2023/07/18 00:50:10;;;;;;;13.60;7.88;;;12.90;99.90;;;;;;7371762;19;20561;-61
2023/07/18 00:52:43;;;;;;;15.02;6.38;;;12.80;99.90;;;;;;7372544;19;20015;-58
2023/07/18 00:55:13;;;;;;;14.00;6.57;;;12.80;99.90;;;;;;7366665;19;20038;-58
2023/07/18 00:57:41;;;;;;;10.15;6.57;;;12.80;99.90;;;;;;7373331;19;20029;-58
2023/07/18 01:00:11;;;;;;;13.18;6.63;;;12.80;99.90;;;;;;7373457;19;20446;-58
2023/07/18 01:02:38;;;;;;;10.77;5.97;;;12.80;99.90;;;;;;7369820;19;20619;-58
2023/07/18 01:05:06;;;;;;;11.43;6.20;;;12.80;99.90;;;;;;7372242;19;20014;-58
2023/07/18 01:07:38;;;;;;;13.20;7.25;;;12.80;99.90;;;;;;7377093;19;20011;-58
2023/07/18 01:10:16;;;;;;;9.80;5.25;;;12.70;99.90;;;;;;7376973;19;20362;-58
2023/07/18 01:12:43;;;;;;;11.60;6.00;;;12.70;99.90;;;;;;7375308;19;20027;-58
2023/07/18 01:15:12;;;;;;;11.30;6.18;;;12.70;99.90;;;;;;7373395;19;20018;-58
2023/07/18 01:17:44;;;;;;;9.80;5.13;;;12.60;99.90;;;;;;7376463;19;20105;-61
2023/07/18 01:20:18;;;;;;;10.82;6.10;;;12.60;99.90;;;;;;7373961;19;20030;-61
2023/07/18 01:22:46;;;;;;;9.32;5.78;;;12.50;99.90;;;;;;7377922;19;20465;-58
2023/07/18 01:25:16;;;;;;;15.75;5.85;;;12.60;99.90;;;;;;7374037;19;20045;-57
2023/07/18 01:27:43;;;;;;;14.32;5.82;;;12.50;99.90;;;;;;7365817;19;20090;-57
2023/07/18 01:30:10;;;;;;;11.13;6.53;;;12.40;99.90;;;;;;7374253;19;20018;-58
2023/07/18 01:32:37;;;;;;;13.20;6.43;;;12.50;99.90;;;;;;7376541;19;20070;-57
2023/07/18 01:35:05;;;;;;;13.90;6.65;;;12.40;99.90;;;;;;7375032;19;20019;-58
2023/07/18 01:37:33;;;;;;;10.30;6.45;;;12.40;99.90;;;;;;7370459;19;20438;-57
2023/07/18 01:40:00;;;;;;;14.32;7.40;;;12.40;99.90;;;;;;7375803;19;20026;-58
2023/07/18 01:42:26;;;;;;;12.82;7.05;;;12.50;99.90;;;;;;7375716;19;20148;-58
2023/07/18 01:44:53;;;;;;;13.70;7.45;;;12.40;99.90;;;;;;7373601;19;20022;-58
2023/07/18 01:47:19;;;;;;;13.93;6.68;;;12.40;99.90;;;;;;7368913;19;20101;-61
2023/07/18 01:49:45;;;;;;;12.75;6.72;;;12.50;99.90;;;;;;7377180;19;20066;-61
2023/07/18 01:52:12;;;;;;;12.13;7.43;;;12.40;99.90;;;;;;7377606;19;20029;-61
2023/07/18 01:54:38;;;;;;;16.73;8.93;;;12.40;99.90;;;;;;7375475;19;20124;-61
2023/07/18 01:57:05;;;;;;;14.52;7.75;;;12.40;99.90;;;;;;7372453;19;20015;-61
2023/07/18 01:59:31;;;;;;;15.85;7.68;;;12.50;99.90;;;;;;7374911;19;20354;-61
2023/07/18 02:01:57;;;;;;;13.13;7.53;;;12.40;99.90;;;;;;7377918;19;20026;-57
2023/07/18 02:04:24;;;;;;;11.93;6.82;;;12.40;99.90;;;;;;7371487;19;20019;-57
2023/07/18 02:06:52;;;;;;;10.30;7.05;;;12.40;99.90;;;;;;7376397;19;20054;-61
2023/07/18 02:09:18;;;;;;;15.18;7.93;;;12.40;99.90;;;;;;7375943;19;20464;-61
2023/07/18 02:11:44;;;;;;;13.57;7.82;;;12.40;99.90;;;;;;7376930;19;20497;-61
2023/07/18 02:14:11;;;;;;;12.27;7.57;;;12.40;99.90;;;;;;7375938;19;20018;-61
2023/07/18 02:16:37;;;;;;;11.73;7.97;;;12.40;99.90;;;;;;7375202;19;20082;-61
2023/07/18 02:19:03;;;;;;;15.85;8.40;;;12.30;99.90;;;;;;7375643;19;20592;-61
2023/07/18 02:21:30;;;;;;;10.85;7.63;;;12.30;99.90;;;;;;7374505;19;20021;-61
2023/07/18 02:23:56;;;;;;;15.40;7.75;;;12.20;99.90;;;;;;7370996;19;20010;-61
2023/07/18 02:26:22;;;;;;;11.75;8.07;;;12.30;99.90;;;;;;7368405;19;20015;-58
2023/07/18 02:28:49;;;;;;;16.02;8.27;;;12.20;99.90;;;;;;7371134;19;20057;-57
2023/07/18 02:31:15;;;;;;;10.82;7.47;;;12.20;99.90;;;;;;7368477;19;20047;-61
2023/07/18 02:33:41;;;;;;;12.25;7.97;;;12.20;99.90;;;;;;7374806;19;20026;-61
2023/07/18 02:36:08;;;;;;;14.52;8.82;;;12.20;99.90;;;;;;7369853;19;20118;-61
2023/07/18 02:38:36;;;;;;;15.57;7.47;;;12.20;99.90;;;;;;7368293;19;20056;-61
2023/07/18 02:41:02;;;;;;;12.98;7.80;;;12.20;99.90;;;;;;7366901;19;20018;-61
2023/07/18 02:43:30;;;;;;;18.80;8.18;;;12.10;99.90;;;;;;7351137;19;20021;-61
2023/07/18 02:45:58;;;;;;;11.38;7.82;;;12.10;99.90;;;;;;7363412;19;20023;-61
2023/07/18 02:48:24;;;;;;;14.50;7.25;;;12.10;99.90;;;;;;7361231;19;20015;-61
2023/07/18 02:50:50;;;;;;;11.18;8.05;;;12.10;99.90;;;;;;7361565;19;20070;-61
2023/07/18 02:53:17;;;;;;;14.63;7.97;;;12.10;99.90;;;;;;7358916;19;20022;-57
2023/07/18 02:55:43;;;;;;;12.38;7.90;;;12.10;99.90;;;;;;7368394;19;20383;-62
2023/07/18 02:58:09;;;;;;;16.48;9.57;;;12.10;99.90;;;;;;7370978;19;20833;-62
2023/07/18 03:00:36;;;;;;;17.10;8.93;;;12.00;99.90;;;;;;7374524;19;20026;-61
2023/07/18 03:03:02;;;;;;;13.65;8.73;;;12.00;99.90;;;;;;7372966;19;20025;-62
2023/07/18 03:05:29;;;;;;;15.95;8.77;;;12.00;99.90;;;;;;7371706;19;20026;-62
2023/07/18 03:07:57;;;;;;;10.73;7.53;;;12.00;99.90;;;;;;7373137;19;20029;-62
2023/07/18 03:10:24;;;;;;;15.27;8.50;;;12.00;99.90;;;;;;7371445;19;20025;-62
2023/07/18 03:12:51;;;;;;;15.85;8.80;;;12.00;99.90;;;;;;7374287;19;20102;-61
2023/07/18 03:15:20;;;;;;;11.32;7.25;;;12.00;99.90;;;;;;7369531;19;20584;-62
2023/07/18 03:17:47;;;;;;;20.40;8.85;;;12.00;99.90;;;;;;7369880;19;20018;-62
2023/07/18 03:20:17;;;;;;;14.65;8.65;;;12.00;99.90;;;;;;7368556;19;20025;-62
2023/07/18 03:22:48;;;;;;;15.57;8.43;;;12.00;99.90;;;;;;7372052;19;20018;-66
2023/07/18 03:25:16;;;;;;;10.70;7.17;;;11.90;99.90;;;;;;7375805;19;20036;-62
2023/07/18 03:27:42;;;;;;;13.77;8.40;;;11.90;99.90;;;;;;7365866;19;20025;-62
2023/07/18 03:30:12;;;;;;;14.20;8.45;;;11.90;99.90;;;;;;7375380;19;20019;-62
2023/07/18 03:32:39;;;;;;;13.95;8.10;;;11.90;99.90;;;;;;7370705;19;20019;-62
2023/07/18 03:35:07;;;;;;;12.40;7.75;;;11.90;99.90;;;;;;7369894;19;20033;-62
2023/07/18 03:37:34;;;;;;;15.25;7.90;;;11.90;99.90;;;;;;7369914;19;20051;-62
2023/07/18 03:40:01;;;;;;;14.10;8.60;;;11.90;99.90;;;;;;7371633;19;20023;-62
2023/07/18 03:42:28;;;;;;;16.35;8.10;;;11.90;99.90;;;;;;7369362;19;20022;-62
2023/07/18 03:44:56;;;;;;;17.17;9.65;;;12.00;99.90;;;;;;7372932;19;20015;-58
2023/07/18 03:47:22;;;;;;;14.68;7.68;;;11.90;99.90;;;;;;7368282;19;20462;-58
2023/07/18 03:49:49;;;;;;;15.55;8.18;;;11.90;99.90;;;;;;7366875;19;20029;-59
2023/07/18 03:52:15;;;;;;;18.52;7.75;;;12.00;99.90;;;;;;7371984;19;20018;-58
2023/07/18 03:54:42;;;;;;;14.32;8.05;;;12.00;99.90;;;;;;7369489;19;20444;-58
2023/07/18 03:57:09;;;;;;;13.85;7.57;;;11.90;99.90;;;;;;7367290;19;20331;-58
2023/07/18 03:59:35;;;;;;;13.68;7.50;;;12.00;99.90;;;;;;7365518;19;20023;-58
2023/07/18 04:02:01;;;;;;;18.52;8.18;;;12.00;99.90;;;;;;7367636;19;20026;-58
2023/07/18 04:04:27;;;;;;;14.20;8.20;;;12.00;99.90;;;;;;7367009;19;20022;-58
2023/07/18 04:06:54;;;;;;;14.23;7.85;;;12.00;99.90;;;;;;7367213;19;20022;-58
2023/07/18 04:09:20;;;;;;;18.65;8.52;;;12.00;99.90;;;;;;7371124;19;20126;-61
2023/07/18 04:11:46;;;;;;;18.73;8.50;;;12.00;99.90;;;;;;7366772;19;20041;-62
2023/07/18 04:14:13;;;;;;;14.00;8.32;;;12.10;99.90;;;;;;7372208;19;20026;-62
2023/07/18 04:16:39;;;;;;;15.88;7.57;;;12.10;99.90;;;;;;7367923;19;20030;-62
2023/07/18 04:19:07;;;;;;;12.85;7.88;;;12.10;99.90;;;;;;7372867;19;20019;-61
2023/07/18 04:21:34;;;;;;;13.07;7.70;;;12.10;99.90;;;;;;7374399;19;20477;-61
2023/07/18 04:24:00;;;;;;;13.73;8.02;;;12.20;99.90;;;;;;7368983;19;20014;-61
2023/07/18 04:26:26;;;;;;;17.25;8.02;;;12.20;99.90;;;;;;7368626;19;20033;-62
2023/07/18 04:28:53;;;;;;;13.68;7.65;;;12.30;99.90;;;;;;7366543;19;20514;-61
2023/07/18 04:31:19;;;;;;;14.38;8.23;;;12.30;99.90;;;;;;7372061;19;20392;-61
2023/07/18 04:33:47;;;;;;;19.95;8.38;;;12.40;99.90;;;;;;7371388;19;20492;-62
2023/07/18 04:36:13;;;;;;;15.90;8.07;;;12.50;99.90;;;;;;7371127;19;20504;-61
2023/07/18 04:38:41;;;;;;;15.43;8.57;;;12.60;99.90;;;;;;7369564;19;20024;-62
2023/07/18 04:41:08;;;;;;;13.82;7.45;;;12.60;99.90;;;;;;7385086;19;21856;-62
2023/07/18 04:43:34;;;;;;;13.77;8.10;;;12.70;99.90;;;;;;7379353;19;20018;-62
2023/07/18 04:46:00;;;;;;;16.15;8.23;;;12.80;99.90;;;;;;7381574;19;20014;-62
2023/07/18 04:48:27;;;;;;;15.27;7.72;;;12.90;99.90;;;;;;7373538;19;20026;-62
2023/07/18 04:50:58;;;;;;;14.88;9.05;;;12.90;99.90;;;;;;7376429;19;20033;-59
2023/07/18 04:53:28;;;;;;;15.80;7.47;;;13.00;99.90;;;;;;7377057;19;20030;-59
2023/07/18 04:55:56;;;;;;;13.37;7.47;;;13.10;99.90;;;;;;7374162;19;20026;-59
2023/07/18 04:58:26;;;;;;;13.68;7.05;;;13.10;99.90;;;;;;7371885;19;20792;-59
2023/07/18 05:00:54;;;;;;;14.90;7.53;;;13.20;99.90;;;;;;7372802;19;20014;-58
2023/07/18 05:03:24;;;;;;;16.75;8.13;;;13.20;99.90;;;;;;7376679;19;20455;-58
2023/07/18 05:05:52;;;;;;;15.57;6.93;;;13.30;99.90;;;;;;7376300;19;20473;-59
2023/07/18 05:08:18;;;;;;;14.80;7.05;;;13.40;99.90;;;;;;7377303;19;20133;-63
2023/07/18 05:10:44;;;;;;;13.32;7.50;;;13.40;99.90;;;;;;7374588;19;20447;-59
2023/07/18 05:13:11;;;;;;;15.15;7.88;;;13.50;99.90;;;;;;7378482;19;20015;-58
2023/07/18 05:15:37;;;;;;;13.38;6.57;;;13.60;99.90;;;;;;7377287;19;20098;-58
2023/07/18 05:18:04;;;;;;;13.52;6.25;;;13.90;99.90;;;;;;7370236;19;20054;-58
2023/07/18 05:20:30;;;;;;;10.30;5.95;;;14.20;99.90;;;;;;7374923;19;20023;-59
2023/07/18 05:22:58;;;;;;;11.27;6.10;;;14.60;99.90;;;;;;7375281;19;20014;-66
2023/07/18 05:25:24;;;;;;;14.07;5.90;;;14.70;99.90;;;;;;7375662;19;20477;-61
2023/07/18 05:27:50;;;;;;;16.48;6.55;;;14.80;99.90;;;;;;7375407;19;20025;-62
2023/07/18 05:30:18;;;;;;;14.27;6.32;;;14.90;99.90;;;;;;7376783;19;20019;-62
2023/07/18 05:32:46;;;;;;;11.68;5.15;;;15.00;99.90;;;;;;7376233;19;20014;-62
2023/07/18 05:35:16;;;;;;;11.50;4.82;;;15.10;99.90;;;;;;7373828;19;20025;-62
2023/07/18 05:37:43;;;;;;;12.98;5.03;;;15.20;99.90;;;;;;7375896;19;20019;-62
2023/07/18 05:40:10;;;;;;;10.93;5.18;;;15.30;99.90;;;;;;7372828;19;20405;-62
2023/07/18 05:42:42;;;;;;;8.02;4.57;;;15.30;99.90;;;;;;7375624;19;20082;-61
2023/07/18 05:45:09;;;;;;;12.65;5.75;;;15.20;99.90;;;;;;7373708;19;20018;-61
2023/07/18 05:47:36;;;;;;;9.80;5.35;;;15.30;99.90;;;;;;7374846;19;20014;-61
2023/07/18 05:50:03;;;;;;;9.15;4.97;;;15.20;99.90;;;;;;7374916;19;20026;-62
2023/07/18 05:52:30;;;;;;;12.23;5.32;;;15.30;99.90;;;;;;7371712;19;20078;-58
2023/07/18 05:54:57;;;;;;;12.73;5.65;;;15.40;99.90;;;;;;7373438;19;20640;-60
2023/07/18 05:57:23;;;;;;;10.82;5.00;;;15.40;99.90;;;;;;7375772;19;20485;-62
2023/07/18 05:59:49;;;;;;;9.82;5.13;;;15.50;99.90;;;;;;7373910;19;20348;-61
2023/07/18 06:02:16;;;;;;;13.05;5.28;;;15.70;99.90;;;;;;7375506;19;20093;-59
2023/07/18 06:04:43;;;;;;;11.20;5.07;;;15.70;99.90;;;;;;7375278;19;20445;-58
2023/07/18 06:07:11;;;;;;;13.52;5.50;;;15.80;99.90;;;;;;7374956;19;20085;-59
2023/07/18 06:09:38;;;;;;;14.27;5.45;;;15.90;99.90;;;;;;7374962;19;20528;-58
2023/07/18 06:12:06;;;;;;;16.20;5.18;;;16.00;99.90;;;;;;7377854;19;20015;-58
2023/07/18 06:14:33;;;;;;;11.32;4.95;;;16.20;99.90;;;;;;7373156;19;20023;-59
2023/07/18 06:17:02;;;;;;;12.25;4.88;;;16.50;99.90;;;;;;7376844;19;20010;-58
2023/07/18 06:19:28;;;;;;;14.10;4.22;;;17.00;99.90;;;;;;7374359;19;20822;-59
2023/07/18 06:21:55;;;;;;;13.98;5.30;;;17.10;99.90;;;;;;7374149;19;20014;-59
2023/07/18 06:24:21;;;;;;;12.27;5.28;;;17.00;99.90;;;;;;7370966;19;20026;-58
2023/07/18 06:26:50;;;;;;;8.45;4.38;;;17.00;99.90;;;;;;7372374;19;20054;-58
2023/07/18 06:29:18;;;;;;;8.68;4.32;;;16.90;99.90;;;;;;7370669;19;20025;-58
2023/07/18 06:31:45;;;;;;;11.35;4.55;;;17.00;99.90;;;;;;7371528;19;20018;-58
2023/07/18 06:34:11;;;;;;;9.88;4.38;;;17.00;99.90;;;;;;7372267;19;20018;-58
2023/07/18 06:36:37;;;;;;;9.25;4.57;;;17.00;99.90;;;;;;7374937;19;20022;-58
2023/07/18 06:39:05;;;;;;;15.05;4.80;;;17.00;99.90;;;;;;7370242;19;20482;-59
2023/07/18 06:41:33;;;;;;;8.55;4.25;;;16.90;99.90;;;;;;7375612;19;20811;-59
2023/07/18 06:44:00;;;;;;;23.60;5.20;;;16.90;99.90;;;;;;7368880;19;20022;-59
2023/07/18 06:46:27;;;;;;;10.15;4.93;;;16.90;99.90;;;;;;7367813;19;20484;-58
2023/07/18 06:48:53;;;;;;;16.15;4.93;;;16.90;99.90;;;;;;7370840;19;20025;-59
2023/07/18 06:51:19;;;;;;;11.20;4.60;;;16.90;99.90;;;;;;7371478;19;20539;-59
2023/07/18 06:53:46;;;;;;;13.20;4.20;;;17.00;99.90;;;;;;7372514;19;20030;-59
2023/07/18 06:56:12;;;;;;;11.75;4.00;;;17.00;99.90;;;;;;7371548;19;20044;-59
2023/07/18 06:58:38;;;;;;;12.90;3.95;;;17.10;99.90;;;;;;7374310;19;20030;-59
2023/07/18 07:01:04;;;;;;;10.82;4.40;;;17.20;99.90;;;;;;7372494;19;20022;-58
2023/07/18 07:03:32;;;;;;;9.98;4.00;;;17.40;99.90;;;;;;7368541;19;20473;-58
2023/07/18 07:06:02;;;;;;;10.18;4.10;;;17.70;99.90;;;;;;7374964;19;20037;-59
2023/07/18 07:08:29;;;;;;;15.43;5.22;;;18.00;99.90;;;;;;7370776;19;20018;-59
2023/07/18 07:11:07;;;;;;;10.07;3.72;;;18.50;99.90;;;;;;7373571;19;20385;-59
2023/07/18 07:13:37;;;;;;;31.65;6.13;;;18.90;99.90;;;;;;7373669;19;20378;-59
2023/07/18 07:16:04;;;;;;;13.90;3.75;;;19.10;99.90;;;;;;7372896;19;20026;-59
2023/07/18 07:18:30;;;;;;;11.13;3.53;;;19.30;99.90;;;;;;7368476;19;20014;-62
2023/07/18 07:20:57;;;;;;;32.97;6.10;;;19.20;99.90;;;;;;7372515;19;20640;-59
2023/07/18 07:23:23;;;;;;;9.95;4.20;;;19.40;99.90;;;;;;7370976;19;20761;-66
2023/07/18 07:25:50;;;;;;;9.43;4.05;;;19.70;99.90;;;;;;7372738;19;20010;-62
2023/07/18 07:28:16;;;;;;;10.05;3.90;;;19.70;99.90;;;;;;7369794;19;20622;-62
2023/07/18 07:30:42;;;;;;;14.15;4.70;;;19.50;99.90;;;;;;7373291;19;20018;-62
2023/07/18 07:33:09;;;;;;;11.95;4.20;;;19.30;99.90;;;;;;7371389;19;20572;-62
2023/07/18 07:35:35;;;;;;;11.57;4.22;;;19.60;99.90;;;;;;7368973;19;20026;-62
2023/07/18 07:38:02;;;;;;;11.20;4.43;;;19.90;99.90;;;;;;7370728;19;20053;-59
2023/07/18 07:40:28;;;;;;;10.20;4.63;;;20.20;99.90;;;;;;7369732;19;20015;-59
2023/07/18 07:42:55;;;;;;;15.25;4.13;;;20.40;99.90;;;;;;7364798;19;20018;-59
2023/07/18 07:45:22;;;;;;;13.13;4.40;;;20.70;99.90;;;;;;7367308;19;20050;-58
2023/07/18 07:47:48;;;;;;;11.95;4.20;;;21.10;99.90;;;;;;7367456;19;21101;-59
2023/07/18 07:50:15;;;;;;;13.50;4.65;;;21.40;99.90;;;;;;7365790;19;20105;-59
2023/07/18 07:52:42;;;;;;;13.43;5.47;;;21.40;99.90;;;;;;7367222;19;20022;-59
2023/07/18 07:55:11;;;;;;;9.15;3.83;;;21.80;99.90;;;;;;7369187;19;20022;-59
2023/07/18 07:57:39;;;;;;;26.27;6.70;;;22.00;99.90;;;;;;7370039;19;20034;-59
2023/07/18 08:00:07;;;;;;;19.27;5.78;;;22.30;99.90;;;;;;7369088;19;20087;-59
2023/07/18 08:02:34;;;;;;;12.00;4.45;;;22.50;99.90;;;;;;7369307;19;20022;-59
2023/07/18 08:05:00;;;;;;;12.25;4.80;;;22.60;99.90;;;;;;7366930;19;20082;-59
2023/07/18 08:07:26;;;;;;;14.95;4.97;;;22.50;99.90;;;;;;7366238;19;20022;-59
2023/07/18 08:09:53;;;;;;;13.95;4.65;;;22.70;99.90;;;;;;7370536;19;20019;-59
2023/07/18 08:12:20;;;;;;;10.65;4.55;;;22.50;99.90;;;;;;7366422;19;20497;-59
2023/07/18 08:14:48;;;;;;;16.42;5.20;;;22.50;99.90;;;;;;7368131;19;20028;-58
2023/07/18 08:17:14;;;;;;;10.80;4.47;;;22.60;99.90;;;;;;7367252;19;20037;-60
2023/07/18 08:19:41;;;;;;;12.93;4.75;;;22.50;99.90;;;;;;7368904;19;20023;-59
2023/07/18 08:22:08;;;;;;;19.70;15.52;;;22.50;99.90;;;;;;7373529;19;20022;-57
2023/07/18 08:24:35;;;;;;;13.93;4.80;;;22.80;99.90;;;;;;7367810;19;20028;-61
2023/07/18 08:27:02;;;;;;;12.50;4.30;;;23.00;99.90;;;;;;7370712;19;20018;-59
2023/07/18 08:29:31;;;;;;;11.68;3.58;;;23.60;99.90;;;;;;7365604;19;20046;-60
2023/07/18 08:31:58;;;;;;;13.02;3.83;;;23.50;99.90;;;;;;7369898;19;20035;-60
2023/07/18 08:34:25;;;;;;;11.18;3.50;;;23.20;99.90;;;;;;7366927;19;20649;-57
2023/07/18 08:36:52;;;;;;;11.80;3.42;;;23.10;99.90;;;;;;7373679;19;20394;-56
2023/07/18 08:39:18;;;;;;;11.80;3.45;;;23.40;99.90;;;;;;7370438;19;20355;-57
2023/07/18 08:41:49;;;;;;;10.32;3.50;;;23.40;99.90;;;;;;7370341;19;20022;-57
2023/07/18 08:44:16;;;;;;;11.02;3.55;;;23.60;99.90;;;;;;7366896;19;20374;-56
2023/07/18 08:46:47;;;;;;;8.73;2.70;;;24.00;99.90;;;;;;7368034;19;20014;-57
2023/07/18 08:49:17;;;;;;;8.75;2.83;;;24.30;99.90;;;;;;7364650;19;20078;-57
2023/07/18 08:51:45;;;;;;;10.95;2.65;;;24.30;99.90;;;;;;7365551;19;20026;-57
2023/07/18 08:54:16;;;;;;;8.77;2.35;;;24.70;99.90;;;;;;7367698;19;20370;-57
2023/07/18 08:56:45;;;;;;;9.77;2.70;;;24.80;99.90;;;;;;7367476;19;20493;-57
2023/07/18 08:59:12;;;;;;;8.85;2.83;;;24.90;99.90;;;;;;7367562;19;20056;-57
2023/07/18 09:01:49;;;;;;;9.68;2.53;;;24.60;99.90;;;;;;7367532;19;20026;-57
2023/07/18 09:04:16;;;;;;;12.55;3.10;;;24.70;99.90;;;;;;7359162;19;21246;-57
2023/07/18 09:06:54;;;;;;;7.43;2.65;;;24.90;99.90;;;;;;7373022;19;20538;-59
2023/07/18 09:09:22;;;;;;;6.82;1.90;;;25.10;99.90;;;;;;7372143;19;20026;-64
2023/07/18 09:11:59;;;;;;;8.27;2.63;;;25.40;99.90;;;;;;7372315;19;20035;-65
2023/07/18 09:14:28;;;;;;;9.02;2.80;;;25.40;99.90;;;;;;7368251;19;20025;-65
2023/07/18 09:16:55;;;;;;;9.95;2.80;;;25.40;99.90;;;;;;7369329;19;20509;-67
2023/07/18 09:19:48;;;;;;;8.32;2.65;;;25.60;99.90;;;;;;7367580;19;20747;-62
2023/07/18 09:22:19;;;;;;;5.38;2.05;;;25.20;99.90;;;;;;7369962;19;20589;-62
2023/07/18 09:24:46;;;;;;;9.23;2.28;;;25.50;99.90;;;;;;7370003;19;20609;-61
2023/07/18 09:27:17;;;;;;;11.32;2.70;;;25.40;99.90;;;;;;7381039;19;20030;-61
2023/07/18 09:29:48;;;;;;;6.57;1.58;;;25.20;99.90;;;;;;7375832;19;20018;-62
2023/07/18 09:32:16;;;;;;;;;;;24.80;99.90;;;;;;7375329;19;20014;-62
2023/07/18 09:34:51;;;;;;;6.47;2.10;;;24.60;99.90;;;;;;7374972;19;19990;-59
2023/07/18 09:37:17;;;;;;;7.35;1.67;;;24.90;99.90;;;;;;7380898;19;20087;-67
2023/07/18 09:39:45;;;;;;;7.53;2.03;;;25.20;99.90;;;;;;7372395;19;20035;-58
2023/07/18 09:42:12;;;;;;;9.50;2.45;;;25.50;99.90;;;;;;7376574;19;20754;-57
2023/07/18 09:44:41;;;;;;;5.28;1.80;;;25.50;99.90;;;;;;7371597;19;20366;-57
2023/07/18 09:47:08;;;;;;;9.65;1.80;;;25.50;99.90;;;;;;7376446;19;20426;-62
2023/07/18 09:49:36;;;;;;;8.32;1.67;;;25.50;99.40;;;;;;7377245;19;20027;-62
2023/07/18 09:52:05;;;;;;;5.70;1.80;;;25.50;98.30;;;;;;7372733;19;20380;-57
2023/07/18 09:54:33;;;;;;;9.43;1.65;;;25.50;99.00;;;;;;7373105;19;20029;-63
2023/07/18 09:57:03;;;;;;;7.55;1.58;;;25.50;98.90;;;;;;7375265;19;20018;-61
2023/07/18 09:59:30;;;;;;;9.35;1.75;;;25.80;99.00;;;;;;7376643;19;20491;-57
2023/07/18 10:01:56;;;;;;;8.98;2.05;;;26.10;97.10;;;;;;7376008;19;20035;-62
2023/07/18 10:04:24;;;;;;;5.53;1.60;;;25.90;96.20;;;;;;7375186;19;20587;-63
2023/07/18 10:06:55;;;;;;;7.05;1.73;;;25.70;96.60;;;;;;7379281;19;20014;-62
2023/07/18 10:09:23;;;;;;;4.07;1.75;;;25.90;96.40;;;;;;7375994;19;20021;-63
2023/07/18 10:11:58;;;;;;;7.93;1.80;;;25.90;95.90;;;;;;7374037;19;20106;-63
2023/07/18 10:14:29;;;;;;;5.13;1.20;;;26.20;96.80;;;;;;7376824;19;20464;-61
2023/07/18 10:17:06;;;;;;;10.57;1.55;;;26.50;95.00;;;;;;7373469;19;20092;-62
2023/07/18 10:19:46;;;;;;;5.45;1.60;;;26.50;93.10;;;;;;7373783;19;20015;-63
2023/07/18 10:22:28;;;;;;;5.65;1.33;;;26.80;91.20;;;;;;7373300;19;20374;-58
2023/07/18 10:25:05;;;;;;;6.50;1.23;;;26.70;88.40;;;;;;7373122;19;20034;-62
2023/07/18 10:27:37;;;;;;;8.00;2.20;;;26.70;88.60;;;;;;7373661;19;20098;-57
2023/07/18 10:30:04;;;;;;;4.50;1.55;;;27.00;82.80;;;;;;7372398;19;20058;-57
2023/07/18 10:32:32;;;;;;;4.30;1.10;;;27.10;85.60;;;;;;7371295;19;20403;-57
2023/07/18 10:35:00;;;;;;;3.95;1.13;;;27.10;84.50;;;;;;7371151;19;20089;-57
2023/07/18 10:37:26;;;;;;;4.93;1.85;;;26.80;82.90;;;;;;7372249;19;21148;-58
2023/07/18 10:39:54;;;;;;;3.30;1.23;;;26.80;83.00;;;;;;7373250;19;20014;-57
2023/07/18 10:42:26;;;;;;;3.17;0.90;;;26.90;82.70;;;;;;7375123;19;20030;-57
2023/07/18 10:45:03;;;;;;;5.55;1.30;;;26.90;81.90;;;;;;7370024;19;20546;-57
2023/07/18 10:47:35;;;;;;;6.28;1.23;;;27.40;79.10;;;;;;7371229;19;20078;-57
2023/07/18 10:50:03;;;;;;;5.05;1.25;;;27.50;78.70;;;;;;7372681;19;20386;-57
2023/07/18 10:52:32;;;;;;;4.75;1.40;;;27.80;78.30;;;;;;7371713;19;20062;-58
2023/07/18 10:55:00;;;;;;;6.53;1.67;;;28.40;81.40;;;;;;7368564;19;20033;-58
2023/07/18 10:57:37;;;;;;;4.15;1.20;;;28.20;77.60;;;;;;7368104;19;20570;-58
2023/07/18 11:00:05;;;;;;;5.93;1.50;;;27.60;73.20;;;;;;7373404;19;20427;-58
2023/07/18 11:02:41;;;;;;;5.28;1.70;;;27.90;76.40;;;;;;7373420;19;20349;-58
2023/07/18 11:05:11;;;;;;;5.15;2.33;;;28.10;73.80;;;;;;7373453;19;20010;-58
2023/07/18 11:07:48;;;;;;;4.57;1.15;;;28.50;75.70;;;;;;7370656;19;20041;-58
2023/07/18 11:10:15;;;;;;;4.25;1.15;;;28.20;73.70;;;;;;7374309;19;20018;-57
2023/07/18 11:12:42;;;;;;;6.50;1.38;;;27.90;70.00;;;;;;7370249;19;20426;-57
2023/07/18 11:15:11;;;;;;;5.65;1.13;;;27.60;69.90;;;;;;7375459;19;20018;-58
2023/07/18 11:17:43;;;;;;;15.63;2.03;;;27.70;70.10;;;;;;7369477;19;20019;-57
2023/07/18 11:20:11;;;;;;;5.07;1.45;;;27.90;70.90;;;;;;7374900;19;20078;-57
2023/07/18 11:22:38;;;;;;;5.13;1.45;;;28.10;70.10;;;;;;7368377;19;20018;-57
2023/07/18 11:25:05;;;;;;;5.82;1.02;;;28.00;72.20;;;;;;7372243;19;20018;-63
2023/07/18 11:27:31;;;;;;;2.92;1.20;;;28.00;69.70;;;;;;7370054;19;20707;-62
2023/07/18 11:30:06;;;;;;;6.30;1.48;;;27.90;67.00;;;;;;7370749;19;20025;-61
2023/07/18 11:32:39;;;;;;;4.20;1.40;;;28.20;65.50;;;;;;7366990;19;20018;-57
2023/07/18 11:35:20;;;;;;;3.47;1.38;;;28.40;68.30;;;;;;7372506;19;20018;-58
2023/07/18 11:37:51;;;;;;;5.40;1.60;;;28.40;63.90;;;;;;7371076;19;20066;-58
2023/07/18 11:40:20;;;;;;;5.40;1.35;;;28.70;66.40;;;;;;7372540;19;20038;-58
2023/07/18 11:42:49;;;;;;;5.00;1.10;;;29.20;66.10;;;;;;7368259;19;20018;-57
2023/07/18 11:45:23;;;;;;;6.22;1.13;;;29.00;63.20;;;;;;7370196;19;20022;-62
2023/07/18 11:48:04;;;;;;;4.95;1.77;;;28.20;62.40;;;;;;7369306;19;20832;-56
2023/07/18 11:50:30;;;;;;;2.80;0.90;;;27.60;62.40;;;;;;7368736;19;20024;-57
2023/07/18 11:52:59;;;;;;;4.57;1.02;;;27.30;65.40;;;;;;7367965;19;20041;-57
2023/07/18 11:55:26;;;;;;;7.35;1.38;;;27.70;66.40;;;;;;7370572;19;20015;-57
2023/07/18 11:57:52;;;;;;;6.15;1.38;;;28.30;65.00;;;;;;7370822;19;20014;-62
2023/07/18 12:00:19;;;;;;;2.88;0.98;;;28.20;64.20;;;;;;7372381;19;20026;-62
2023/07/18 12:02:45;;;;;;;5.32;1.05;;;27.30;63.10;;;;;;7366052;19;20023;-62
2023/07/18 12:05:16;;;;;;;4.03;0.90;;;26.80;62.30;;;;;;7370835;19;20025;-62
2023/07/18 12:07:44;;;;;;;4.97;1.13;;;26.40;65.10;;;;;;7369028;19;20014;-58
2023/07/18 12:10:11;;;;;;;3.90;1.00;;;27.00;65.70;;;;;;7373025;19;20278;-63
2023/07/18 12:12:41;;;;;;;3.22;0.98;;;26.70;64.60;;;;;;7370301;19;20026;-63
2023/07/18 12:15:08;;;;;;;2.85;0.73;;;26.30;63.80;;;;;;7369520;19;20018;-62
2023/07/18 12:17:35;;;;;;;3.13;0.95;;;26.60;65.50;;;;;;7372142;19;20893;-62
2023/07/18 12:20:02;;;;;;;5.93;0.95;;;26.70;64.50;;;;;;7374893;19;20037;-62
2023/07/18 12:22:30;;;;;;;3.08;0.80;;;27.50;63.10;;;;;;7368510;19;20019;-62
2023/07/18 12:24:56;;;;;;;3.72;0.80;;;27.60;62.10;;;;;;7367271;19;20019;-62
2023/07/18 12:27:22;;;;;;;18.70;3.05;;;27.90;62.90;;;;;;7372049;19;20466;-62
2023/07/18 12:29:48;;;;;;;18.92;2.45;;;27.70;59.70;;;;;;7370306;19;20018;-62
2023/07/18 12:32:15;;;;;;;3.70;0.90;;;27.80;60.60;;;;;;7367208;19;20394;-63
2023/07/18 12:34:41;;;;;;;4.10;0.88;;;27.50;60.40;;;;;;7365328;19;20459;-66
2023/07/18 12:37:08;;;;;;;3.13;1.08;;;27.70;60.50;;;;;;7372436;19;20015;-62
2023/07/18 12:39:34;;;;;;;19.48;3.47;;;27.40;61.00;;;;;;7369386;19;20019;-62
2023/07/18 12:42:01;;;;;;;4.28;1.00;;;27.10;61.50;;;;;;7366929;19;20378;-62
2023/07/18 12:44:39;;;;;;;4.65;0.80;;;26.80;62.20;;;;;;7365859;19;20370;-62